CA-0063 weather

Public forecast

Using degrees Celsius for public forecast. Weather courtesy of forecast.io.

Closest aviation weather report (METAR) to Buchans Airport

Closest report is Deer Lake Airport, 30.8 nm (57.0 km) NW. Retrieved 2020/08/12 12:00 UTC (27 minutes ago):

CYDF 121200Z 22008KT 15SM BKN026 BKN080 OVC200 25/20 A2999 RMK SC6AC1CI1 SLP157 DENSITY ALT 1200FT

Closest aviation forecast (TAF) to Buchans Airport

Closest forecast is Deer Lake Airport, 30.8 nm (57.0 km) NW. Retrieved 2020/08/12 11:39 UTC (48 minutes ago):

TAF TAF CYDF 121038Z 1211/1223 20008KT P6SM SCT030 OVC200 TEMPO 1211/1223 BKN020 OVC200 BECMG 1212/1214 21012G22KT RMK NXT FCST BY 121400Z